Yushe, China
Current Conditions -  °F | °C
As of 2:30 PM on Wednesday 26 Nov 2014 (Local Time) from ZBYN Reporting Station
Haze Haze  
Wind Chill: 46°   Ceiling: Unl
Heat Index: 46°   Visibility: 2.5mi
Dew Point: 30°   Wind: 2mph
Humidity: 53%   Direction: 220°SW
Pressure: 29.94"   Gusts: NA
Location:  37.07°N, 112.98°E
Report Text: ZBYN 260630Z 22001MPS 4000 HZ NSC 08/M01 Q1014 NOSIG
Loading
Personal Weather Stations






























Interactive Weather Map New forecast layout! Learn more

10-Day Weather Forecast

Advertisements
Track Severe Weather on mobile